createdAt,value
2019-04-30T00:01:48.550Z,14.10
2019-04-30T00:04:21.675Z,14.00
2019-04-30T00:06:50.252Z,14.00
2019-04-30T00:09:21.163Z,14.00
2019-04-30T00:11:50.723Z,13.90
2019-04-30T00:14:20.211Z,13.90
2019-04-30T00:16:55.078Z,13.90
2019-04-30T00:19:23.689Z,13.90
2019-04-30T00:21:56.930Z,13.90
2019-04-30T00:24:25.853Z,13.90
2019-04-30T00:26:55.127Z,13.90
2019-04-30T00:29:27.985Z,13.80
2019-04-30T00:32:03.712Z,13.80
2019-04-30T00:34:25.090Z,13.80
2019-04-30T00:36:55.968Z,13.80
2019-04-30T00:39:27.094Z,13.70
2019-04-30T00:41:56.692Z,13.60
2019-04-30T00:44:28.273Z,13.60
2019-04-30T00:46:55.918Z,13.50
2019-04-30T00:49:26.608Z,13.50
2019-04-30T00:51:58.161Z,13.40
2019-04-30T00:54:27.943Z,13.40
2019-04-30T00:56:59.357Z,13.30
2019-04-30T00:59:26.774Z,13.30
2019-04-30T01:02:06.118Z,13.20
2019-04-30T01:04:36.407Z,13.20
2019-04-30T01:07:08.667Z,13.20
2019-04-30T01:09:39.736Z,13.20
2019-04-30T01:12:06.591Z,13.10
2019-04-30T01:14:35.308Z,13.10
2019-04-30T01:17:08.213Z,13.10
2019-04-30T01:19:34.336Z,13.00
2019-04-30T01:22:02.968Z,13.00
2019-04-30T01:24:35.227Z,12.90
2019-04-30T01:27:06.743Z,12.90
2019-04-30T01:29:40.905Z,12.90
2019-04-30T01:32:05.273Z,12.90
2019-04-30T01:34:34.848Z,12.90
2019-04-30T01:37:03.433Z,12.80
2019-04-30T01:39:32.040Z,12.80
2019-04-30T01:42:02.967Z,12.80
2019-04-30T01:44:30.898Z,12.80
2019-04-30T01:46:59.481Z,12.80
2019-04-30T01:49:30.053Z,12.80
2019-04-30T01:52:00.492Z,12.80
2019-04-30T01:54:29.114Z,12.80
2019-04-30T01:57:15.815Z,12.80
2019-04-30T02:00:02.323Z,12.80
2019-04-30T02:02:32.634Z,12.80
2019-04-30T02:05:01.343Z,12.80
2019-04-30T02:07:29.908Z,12.90
2019-04-30T02:09:58.910Z,12.90
2019-04-30T02:12:29.499Z,12.90
2019-04-30T02:14:59.525Z,13.00
2019-04-30T02:17:29.293Z,13.00
2019-04-30T02:19:59.295Z,12.90
2019-04-30T02:22:30.903Z,12.90
2019-04-30T02:24:58.648Z,12.80
2019-04-30T02:27:30.948Z,12.80
2019-04-30T02:30:02.670Z,12.70
2019-04-30T02:32:30.534Z,12.70
2019-04-30T02:35:09.404Z,12.70
2019-04-30T02:37:40.411Z,12.60
2019-04-30T02:40:10.126Z,12.60
2019-04-30T02:42:44.685Z,12.50
2019-04-30T02:45:13.511Z,12.50
2019-04-30T02:47:42.420Z,12.50
2019-04-30T02:50:18.344Z,12.40
2019-04-30T02:52:43.605Z,12.40
2019-04-30T02:55:15.263Z,12.30
2019-04-30T02:57:44.184Z,12.30
2019-04-30T03:00:20.535Z,12.30
2019-04-30T03:02:50.483Z,12.20
2019-04-30T03:05:21.260Z,12.20
2019-04-30T03:07:53.143Z,12.20
2019-04-30T03:10:20.209Z,12.20
2019-04-30T03:12:49.977Z,12.20
2019-04-30T03:15:22.325Z,12.20
2019-04-30T03:18:02.260Z,12.10
2019-04-30T03:20:50.752Z,12.10
2019-04-30T03:23:19.636Z,12.10
2019-04-30T03:25:50.148Z,12.10
2019-04-30T03:28:20.147Z,12.10
2019-04-30T03:30:57.694Z,12.10
2019-04-30T03:33:25.919Z,12.10
2019-04-30T03:35:55.660Z,12.00
2019-04-30T03:38:25.338Z,12.00
2019-04-30T03:40:53.899Z,12.10
2019-04-30T03:43:22.520Z,12.10
2019-04-30T03:45:51.100Z,12.10
2019-04-30T03:48:20.226Z,12.10
2019-04-30T03:50:55.793Z,12.10
2019-04-30T03:53:20.195Z,12.10
2019-04-30T03:55:50.591Z,12.10
2019-04-30T03:58:21.157Z,12.20
2019-04-30T04:00:54.102Z,12.20
2019-04-30T04:03:22.673Z,12.20
2019-04-30T04:06:10.475Z,12.20
2019-04-30T04:08:43.231Z,12.30
2019-04-30T04:11:12.547Z,12.30
2019-04-30T04:13:41.164Z,12.30
2019-04-30T04:16:09.891Z,12.30
2019-04-30T04:18:40.202Z,12.30
2019-04-30T04:21:16.415Z,12.40
2019-04-30T04:23:39.873Z,12.40
2019-04-30T04:26:09.451Z,12.50
2019-04-30T04:28:43.124Z,12.70
2019-04-30T04:31:09.553Z,13.00
2019-04-30T04:33:39.554Z,13.20
2019-04-30T04:36:09.149Z,13.30
2019-04-30T04:38:40.328Z,13.30
2019-04-30T04:41:10.388Z,13.30
2019-04-30T04:43:40.152Z,13.40
2019-04-30T04:46:09.292Z,13.50
2019-04-30T04:48:39.465Z,13.60
2019-04-30T04:51:19.723Z,13.60
2019-04-30T04:53:40.191Z,13.70
2019-04-30T04:56:10.061Z,13.80
2019-04-30T04:58:40.168Z,13.90
2019-04-30T05:01:11.698Z,14.20
2019-04-30T05:03:39.881Z,14.50
2019-04-30T05:06:11.356Z,14.80
2019-04-30T05:08:39.616Z,14.90
2019-04-30T05:11:09.583Z,15.00
2019-04-30T05:13:38.912Z,15.30
2019-04-30T05:16:09.198Z,15.90
2019-04-30T05:18:39.139Z,16.70
2019-04-30T05:21:08.808Z,17.30
2019-04-30T05:23:39.310Z,17.60
2019-04-30T05:26:08.465Z,18.10
2019-04-30T05:28:39.350Z,18.50
2019-04-30T05:31:08.765Z,18.70
2019-04-30T05:33:38.955Z,18.90
2019-04-30T05:36:09.308Z,19.00
2019-04-30T05:38:39.222Z,19.40
2019-04-30T05:41:09.879Z,19.90
2019-04-30T05:43:38.734Z,20.30
2019-04-30T05:46:08.334Z,20.50
2019-04-30T05:48:39.602Z,20.60
2019-04-30T05:51:08.979Z,20.90
2019-04-30T05:53:39.303Z,21.30
2019-04-30T05:56:09.567Z,21.60
2019-04-30T05:58:39.760Z,21.90
2019-04-30T06:01:09.681Z,22.00
2019-04-30T06:03:38.673Z,22.20
2019-04-30T06:06:09.163Z,22.30
2019-04-30T06:08:50.880Z,22.50
2019-04-30T06:11:39.246Z,22.50
2019-04-30T06:14:20.784Z,22.80
2019-04-30T06:16:51.747Z,23.30
2019-04-30T06:19:20.638Z,23.70
2019-04-30T06:21:49.276Z,24.00
2019-04-30T06:24:18.780Z,24.40
2019-04-30T06:26:49.360Z,25.30
2019-04-30T06:29:18.962Z,25.60
2019-04-30T06:31:48.637Z,26.20
2019-04-30T06:34:17.424Z,26.60
2019-04-30T06:36:51.824Z,27.10
2019-04-30T06:39:18.783Z,27.40
2019-04-30T06:41:49.286Z,27.50
2019-04-30T06:44:19.467Z,27.50
2019-04-30T06:46:48.782Z,28.10
2019-04-30T06:49:21.222Z,28.90
2019-04-30T06:51:50.750Z,29.00
2019-04-30T06:54:21.240Z,28.80
2019-04-30T06:56:50.796Z,28.90
2019-04-30T06:59:20.328Z,28.90
2019-04-30T07:01:49.053Z,28.90
2019-04-30T07:04:19.358Z,28.90
2019-04-30T07:06:50.474Z,28.90
2019-04-30T07:09:26.818Z,28.90
2019-04-30T07:11:59.266Z,29.30
2019-04-30T07:14:29.155Z,29.70
2019-04-30T07:17:03.215Z,29.60
2019-04-30T07:19:38.255Z,29.90
2019-04-30T07:22:02.005Z,30.20
2019-04-30T07:24:30.607Z,29.80
2019-04-30T07:27:02.662Z,29.90
2019-04-30T07:29:30.368Z,30.20
2019-04-30T07:32:00.508Z,30.70
2019-04-30T07:34:30.148Z,30.90
2019-04-30T07:37:11.795Z,31.10
2019-04-30T07:39:33.327Z,31.40
2019-04-30T07:42:00.851Z,31.30
2019-04-30T07:47:02.077Z,32.30
2019-04-30T07:49:46.186Z,32.50
2019-04-30T07:52:01.707Z,32.60
2019-04-30T07:54:30.869Z,32.40
2019-04-30T07:57:00.335Z,32.50
2019-04-30T07:59:30.172Z,32.90
2019-04-30T08:04:45.754Z,33.40
2019-04-30T08:07:14.649Z,33.60
2019-04-30T08:09:35.037Z,31.40
2019-04-30T08:09:38.407Z,33.50
2019-04-30T08:09:43.257Z,33.30
2019-04-30T08:12:21.771Z,33.00
2019-04-30T08:14:43.156Z,33.20
2019-04-30T08:17:11.737Z,33.00
2019-04-30T08:19:41.054Z,31.70
2019-04-30T08:22:09.824Z,31.70
2019-04-30T08:24:39.128Z,32.50
2019-04-30T08:27:09.697Z,32.60
2019-04-30T08:29:39.471Z,33.30
2019-04-30T08:32:09.059Z,33.50
2019-04-30T08:34:39.374Z,32.30
2019-04-30T08:37:17.045Z,32.40
2019-04-30T08:39:39.734Z,31.10
2019-04-30T08:42:08.974Z,31.50
2019-04-30T08:44:39.528Z,32.10
2019-04-30T08:47:08.619Z,32.50
2019-04-30T08:49:38.113Z,33.10
2019-04-30T08:52:07.740Z,34.30
2019-04-30T08:54:36.392Z,34.10
2019-04-30T08:57:05.944Z,34.20
2019-04-30T08:59:34.504Z,34.30
2019-04-30T09:02:13.611Z,32.90
2019-04-30T09:04:33.308Z,31.00
2019-04-30T09:07:01.876Z,30.90
2019-04-30T09:09:30.449Z,32.40
2019-04-30T09:11:59.298Z,32.00
2019-04-30T09:14:29.695Z,31.10
2019-04-30T09:16:59.580Z,30.90
2019-04-30T09:19:29.847Z,32.20
2019-04-30T09:21:59.103Z,33.20
2019-04-30T09:24:30.781Z,34.00
2019-04-30T09:26:59.080Z,33.60
2019-04-30T09:29:29.318Z,31.60
2019-04-30T09:31:59.445Z,30.10
2019-04-30T09:34:29.046Z,28.70
2019-04-30T09:36:58.897Z,28.00
2019-04-30T09:39:29.388Z,27.70
2019-04-30T09:41:59.519Z,27.20
2019-04-30T09:44:30.554Z,26.50
2019-04-30T09:46:58.835Z,26.00
2019-04-30T09:49:29.289Z,25.60
2019-04-30T09:51:59.518Z,25.30
2019-04-30T09:54:29.004Z,24.90
2019-04-30T09:56:59.018Z,24.40
2019-04-30T09:59:29.111Z,24.10
2019-04-30T10:01:57.846Z,24.20
2019-04-30T10:04:26.808Z,24.10
2019-04-30T10:06:56.142Z,23.80
2019-04-30T10:09:24.710Z,23.40
2019-04-30T10:12:06.941Z,23.20
2019-04-30T10:14:35.792Z,23.20
2019-04-30T10:17:23.608Z,23.20
2019-04-30T10:19:52.252Z,23.20
2019-04-30T10:22:21.889Z,23.00
2019-04-30T10:24:50.736Z,23.00
2019-04-30T10:27:20.214Z,23.20
2019-04-30T10:29:49.696Z,23.40
2019-04-30T10:32:19.300Z,23.30
2019-04-30T10:34:48.020Z,23.10
2019-04-30T10:37:18.747Z,23.20
2019-04-30T10:39:49.100Z,23.20
2019-04-30T10:42:17.735Z,23.00
2019-04-30T10:44:46.433Z,22.80
2019-04-30T10:47:15.687Z,22.80
2019-04-30T10:49:45.245Z,22.80
2019-04-30T10:52:13.872Z,22.60
2019-04-30T10:54:42.488Z,22.70
2019-04-30T10:57:11.060Z,22.80
2019-04-30T10:59:40.701Z,22.80
2019-04-30T11:02:09.444Z,22.80
2019-04-30T11:04:38.081Z,22.80
2019-04-30T11:07:08.531Z,22.80
2019-04-30T11:09:39.355Z,22.90
2019-04-30T11:12:09.509Z,23.10
2019-04-30T11:14:38.143Z,23.20
2019-04-30T11:17:07.047Z,23.30
2019-04-30T11:19:35.814Z,23.10
2019-04-30T11:22:05.694Z,22.80
2019-04-30T11:24:37.934Z,22.70
2019-04-30T11:27:05.054Z,22.40
2019-04-30T11:29:33.888Z,22.20
2019-04-30T11:32:04.466Z,21.80
2019-04-30T11:34:33.115Z,21.70
2019-04-30T11:37:01.756Z,21.80
2019-04-30T11:39:30.395Z,21.90
2019-04-30T11:41:59.117Z,21.90
2019-04-30T11:44:31.301Z,21.80
2019-04-30T11:47:01.129Z,21.70
2019-04-30T11:49:29.704Z,21.50
2019-04-30T11:51:58.298Z,21.40
2019-04-30T11:54:26.936Z,21.30
2019-04-30T11:56:55.585Z,21.10
2019-04-30T11:59:24.509Z,21.10
2019-04-30T12:01:54.705Z,21.30
2019-04-30T12:04:23.266Z,21.30
2019-04-30T12:06:53.161Z,21.40
2019-04-30T12:09:39.803Z,21.20
2019-04-30T12:12:09.137Z,21.10
2019-04-30T12:14:39.552Z,20.90
2019-04-30T12:17:08.406Z,20.80
2019-04-30T12:19:38.742Z,20.80
2019-04-30T12:22:07.198Z,20.70
2019-04-30T12:24:35.758Z,20.70
2019-04-30T12:27:04.503Z,20.60
2019-04-30T12:29:33.076Z,20.70
2019-04-30T12:32:01.664Z,20.80
2019-04-30T12:34:30.276Z,20.80
2019-04-30T12:37:00.812Z,21.00
2019-04-30T12:39:30.096Z,21.20
2019-04-30T12:41:59.855Z,21.40
2019-04-30T12:44:29.079Z,21.50
2019-04-30T12:46:58.675Z,21.60
2019-04-30T12:49:28.814Z,21.70
2019-04-30T12:52:04.818Z,21.70
2019-04-30T12:54:47.134Z,21.70
2019-04-30T12:57:29.609Z,21.40
2019-04-30T13:00:00.033Z,21.30
2019-04-30T13:02:28.989Z,21.00
2019-04-30T13:05:00.443Z,20.80
2019-04-30T13:07:30.352Z,20.80
2019-04-30T13:10:01.599Z,20.80
2019-04-30T13:12:29.859Z,20.90
2019-04-30T13:14:58.634Z,21.00
2019-04-30T13:17:27.274Z,21.00
2019-04-30T13:19:55.874Z,20.90
2019-04-30T13:22:26.059Z,20.80
2019-04-30T13:24:54.789Z,20.60
2019-04-30T13:27:23.405Z,20.50
2019-04-30T13:30:09.959Z,20.40
2019-04-30T13:32:40.182Z,20.30
2019-04-30T13:35:09.350Z,20.30
2019-04-30T13:37:39.713Z,20.40
2019-04-30T13:40:10.179Z,20.40
2019-04-30T13:42:48.788Z,20.50
2019-04-30T13:45:18.686Z,20.60
2019-04-30T13:47:49.708Z,20.60
2019-04-30T13:50:19.736Z,20.60
2019-04-30T13:52:48.884Z,20.60
2019-04-30T13:55:19.226Z,20.60
2019-04-30T13:57:47.858Z,20.50
2019-04-30T14:00:21.695Z,20.40
2019-04-30T14:03:00.593Z,20.30
2019-04-30T14:05:28.265Z,20.30
2019-04-30T14:08:13.627Z,20.20
2019-04-30T14:10:44.053Z,20.20
2019-04-30T14:13:12.788Z,20.20
2019-04-30T14:15:41.901Z,20.30
2019-04-30T14:18:10.520Z,20.40
2019-04-30T14:20:39.173Z,20.70
2019-04-30T14:23:08.534Z,20.90
2019-04-30T14:25:38.049Z,21.10
2019-04-30T14:28:06.712Z,21.30
2019-04-30T14:30:35.425Z,21.20
2019-04-30T14:33:05.075Z,21.00
2019-04-30T14:35:35.821Z,20.80
2019-04-30T14:38:05.242Z,20.60
2019-04-30T14:40:34.376Z,20.50
2019-04-30T14:43:05.125Z,20.60
2019-04-30T14:45:35.873Z,20.70
2019-04-30T14:48:07.092Z,20.70
2019-04-30T14:50:40.402Z,20.80
2019-04-30T14:53:14.421Z,20.80
2019-04-30T14:56:08.718Z,20.80
2019-04-30T14:58:42.481Z,20.70
2019-04-30T15:01:19.340Z,20.70
2019-04-30T15:03:49.472Z,20.40
2019-04-30T15:06:19.376Z,20.30
2019-04-30T15:08:49.499Z,20.10
2019-04-30T15:11:19.025Z,19.90
2019-04-30T15:13:49.432Z,19.70
2019-04-30T15:16:18.215Z,19.60
2019-04-30T15:18:46.858Z,19.50
2019-04-30T15:21:16.491Z,19.40
2019-04-30T15:24:01.579Z,19.40
2019-04-30T15:26:29.153Z,19.40
2019-04-30T15:28:59.873Z,19.50
2019-04-30T15:31:29.652Z,19.70
2019-04-30T15:34:02.813Z,19.70
2019-04-30T15:36:30.224Z,20.00
2019-04-30T15:39:06.345Z,20.10
2019-04-30T15:41:34.929Z,20.20
2019-04-30T15:44:03.819Z,20.30
2019-04-30T15:46:32.843Z,20.30
2019-04-30T15:49:01.415Z,20.30
2019-04-30T15:51:30.165Z,20.20
2019-04-30T15:53:58.729Z,20.10
2019-04-30T15:56:35.258Z,20.00
2019-04-30T15:59:05.875Z,19.90
2019-04-30T16:01:34.643Z,19.80
2019-04-30T16:04:03.758Z,19.70
2019-04-30T16:06:32.342Z,19.60
2019-04-30T16:09:05.291Z,19.50
2019-04-30T16:11:41.882Z,19.40
2019-04-30T16:14:15.130Z,19.40
2019-04-30T16:16:45.502Z,19.30
2019-04-30T16:19:14.108Z,19.30
2019-04-30T16:21:43.030Z,19.40
2019-04-30T16:24:11.727Z,19.40
2019-04-30T16:26:48.986Z,19.40
2019-04-30T16:29:10.680Z,19.40
2019-04-30T16:31:39.392Z,19.40
2019-04-30T16:34:08.162Z,19.30
2019-04-30T16:36:36.726Z,19.30
2019-04-30T16:39:08.716Z,19.30
2019-04-30T16:41:40.528Z,19.30
2019-04-30T16:44:09.188Z,19.30
2019-04-30T16:46:39.526Z,19.20
2019-04-30T16:49:10.001Z,19.10
2019-04-30T16:51:38.671Z,19.10
2019-04-30T16:54:08.664Z,19.00
2019-04-30T16:56:38.658Z,19.00
2019-04-30T16:59:09.064Z,18.90
2019-04-30T17:01:37.763Z,18.80
2019-04-30T17:04:13.883Z,18.70
2019-04-30T17:06:50.013Z,18.70
2019-04-30T17:09:25.761Z,18.60
2019-04-30T17:12:02.057Z,18.50
2019-04-30T17:14:34.157Z,18.50
2019-04-30T17:17:04.749Z,18.50
2019-04-30T17:19:33.413Z,18.40
2019-04-30T17:22:02.007Z,18.40
2019-04-30T17:24:30.545Z,18.40
2019-04-30T17:26:59.354Z,18.40
2019-04-30T17:29:27.968Z,18.40
2019-04-30T17:31:56.540Z,18.40
2019-04-30T17:34:25.143Z,18.40
2019-04-30T17:36:53.703Z,18.40
2019-04-30T17:39:22.359Z,18.40
2019-04-30T17:41:50.964Z,18.40
2019-04-30T17:44:19.519Z,18.30
2019-04-30T17:46:49.717Z,18.30
2019-04-30T17:49:18.986Z,18.30
2019-04-30T17:51:49.126Z,18.30
2019-04-30T17:54:19.250Z,18.20
2019-04-30T17:56:49.207Z,18.20
2019-04-30T17:59:17.791Z,18.10
2019-04-30T18:01:56.967Z,17.90
2019-04-30T18:04:25.560Z,17.80
2019-04-30T18:06:54.589Z,17.70
2019-04-30T18:09:23.249Z,17.60
2019-04-30T18:11:51.807Z,17.50
2019-04-30T18:14:20.515Z,17.40
2019-04-30T18:16:49.157Z,17.30
2019-04-30T18:19:21.902Z,17.20
2019-04-30T18:22:01.290Z,17.10
2019-04-30T18:24:32.107Z,17.00
2019-04-30T18:27:21.248Z,16.90
2019-04-30T18:29:51.169Z,16.90
2019-04-30T18:32:21.903Z,16.80
2019-04-30T18:34:50.619Z,16.80
2019-04-30T18:37:19.223Z,16.70
2019-04-30T18:39:47.845Z,16.70
2019-04-30T18:42:16.551Z,16.60
2019-04-30T18:44:45.131Z,16.60
2019-04-30T18:47:13.851Z,16.50
2019-04-30T18:49:44.435Z,16.50
2019-04-30T18:52:13.655Z,16.40
2019-04-30T18:54:42.581Z,16.40
2019-04-30T18:57:11.341Z,16.30
2019-04-30T18:59:40.497Z,16.30
2019-04-30T19:02:10.731Z,16.30
2019-04-30T19:04:40.881Z,16.30
2019-04-30T19:07:11.573Z,16.20
2019-04-30T19:09:42.589Z,16.20
2019-04-30T19:12:13.131Z,16.10
2019-04-30T19:14:59.154Z,16.10
2019-04-30T19:17:45.747Z,16.00
2019-04-30T19:20:18.889Z,16.00
2019-04-30T19:22:47.497Z,15.90
2019-04-30T19:25:16.455Z,15.90
2019-04-30T19:27:45.281Z,15.80
2019-04-30T19:30:14.236Z,15.80
2019-04-30T19:32:43.455Z,15.70
2019-04-30T19:35:12.350Z,15.60
2019-04-30T19:37:42.074Z,15.60
2019-04-30T19:40:11.224Z,15.60
2019-04-30T19:42:40.423Z,15.50
2019-04-30T19:45:12.368Z,15.50
2019-04-30T19:47:39.744Z,15.50
2019-04-30T19:50:09.374Z,15.50
2019-04-30T19:52:38.166Z,15.50
2019-04-30T19:55:07.793Z,15.40
2019-04-30T19:57:36.736Z,15.40
2019-04-30T20:00:06.534Z,15.40
2019-04-30T20:02:35.827Z,15.30
2019-04-30T20:05:05.652Z,15.50
2019-04-30T20:07:38.267Z,15.20
2019-04-30T20:10:09.055Z,15.20
2019-04-30T20:12:38.835Z,15.10
2019-04-30T20:15:17.212Z,15.10
2019-04-30T20:17:39.176Z,15.10
2019-04-30T20:20:10.972Z,15.10
2019-04-30T20:22:39.974Z,15.00
2019-04-30T20:25:09.269Z,14.90
2019-04-30T20:27:39.628Z,15.10
2019-04-30T20:30:09.894Z,14.90
2019-04-30T20:32:39.286Z,14.90
2019-04-30T20:35:09.709Z,14.80
2019-04-30T20:37:55.903Z,14.80
2019-04-30T20:40:26.175Z,14.70
2019-04-30T20:42:54.762Z,14.70
2019-04-30T20:45:23.372Z,14.70
2019-04-30T20:47:51.936Z,14.60
2019-04-30T20:50:20.514Z,14.60
2019-04-30T20:52:49.156Z,14.60
2019-04-30T20:55:17.838Z,14.50
2019-04-30T20:57:46.403Z,14.50
2019-04-30T21:00:16.040Z,14.40
2019-04-30T21:02:44.614Z,14.30
2019-04-30T21:05:13.252Z,14.30
2019-04-30T21:07:41.893Z,14.30
2019-04-30T21:10:11.018Z,14.30
2019-04-30T21:12:40.845Z,14.20
2019-04-30T21:15:09.752Z,14.20
2019-04-30T21:17:38.322Z,14.20
2019-04-30T21:20:09.491Z,14.10
2019-04-30T21:22:38.867Z,14.10
2019-04-30T21:25:09.019Z,14.10
2019-04-30T21:27:40.128Z,14.10
2019-04-30T21:30:09.678Z,14.00
2019-04-30T21:32:56.226Z,14.00
2019-04-30T21:35:26.547Z,14.00
2019-04-30T21:37:59.043Z,13.90
2019-04-30T21:40:29.500Z,13.90
2019-04-30T21:42:57.814Z,13.90
2019-04-30T21:45:26.512Z,13.90
2019-04-30T21:47:56.356Z,13.80
2019-04-30T21:50:26.178Z,13.80
2019-04-30T21:52:54.795Z,13.80
2019-04-30T21:55:23.362Z,13.80
2019-04-30T21:57:52.000Z,13.70
2019-04-30T22:00:22.600Z,13.70
2019-04-30T22:02:51.290Z,13.70
2019-04-30T22:05:19.833Z,13.60
2019-04-30T22:07:48.649Z,13.60
2019-04-30T22:10:19.106Z,13.60
2019-04-30T22:12:48.918Z,13.50
2019-04-30T22:15:17.976Z,13.50
2019-04-30T22:17:46.655Z,13.50
2019-04-30T22:20:21.082Z,13.40
2019-04-30T22:22:49.720Z,13.40
2019-04-30T22:25:19.358Z,13.40
2019-04-30T22:27:47.988Z,13.40
2019-04-30T22:30:19.923Z,13.40
2019-04-30T22:32:49.499Z,13.30
2019-04-30T22:35:26.075Z,13.30
2019-04-30T22:37:56.393Z,13.30
2019-04-30T22:40:25.335Z,13.20
2019-04-30T22:42:55.894Z,13.20
2019-04-30T22:45:27.290Z,13.20
2019-04-30T22:47:58.737Z,13.20
2019-04-30T22:50:28.853Z,13.10
2019-04-30T22:52:59.110Z,13.10
2019-04-30T22:55:29.043Z,13.10
2019-04-30T22:57:57.661Z,13.10
2019-04-30T23:00:43.927Z,13.10
2019-04-30T23:03:14.321Z,13.10
2019-04-30T23:05:43.022Z,13.10
2019-04-30T23:08:12.878Z,13.10
2019-04-30T23:10:42.047Z,13.10
2019-04-30T23:13:11.280Z,13.10
2019-04-30T23:15:40.111Z,13.10
2019-04-30T23:18:08.795Z,13.10
2019-04-30T23:20:37.327Z,13.10
2019-04-30T23:23:06.275Z,13.00
2019-04-30T23:25:34.977Z,13.00
2019-04-30T23:28:03.602Z,13.00
2019-04-30T23:30:32.240Z,13.00
2019-04-30T23:33:00.855Z,12.90
2019-04-30T23:35:29.415Z,12.90
2019-04-30T23:37:58.361Z,12.90
2019-04-30T23:40:30.435Z,12.80
2019-04-30T23:43:00.959Z,12.80
2019-04-30T23:45:29.512Z,12.80
2019-04-30T23:47:58.105Z,12.70
2019-04-30T23:50:26.798Z,12.70
2019-04-30T23:52:56.319Z,12.60
2019-04-30T23:55:24.910Z,12.60
2019-04-30T23:57:53.497Z,12.60
